AOT weather

Aosta Airport
Aosta, Valle d'Aosta, Italy

Public forecast

Using degrees Celsius for public forecast. Weather courtesy of forecast.io.

METAR (pilot weather report)

Retrieved 2019/05/19 17:20 UTC (30 minutes ago):

LIMW 191720Z AUTO 08012KT 9999 SCT057/// BKN070/// OVC110/// 15/08 Q1004

TAF (pilot weather forecast)

Closest forecast is Turin Airport, 34.4 nm (63.7 km) SSE. Retrieved 2019/05/19 12:21 UTC (5 hours ago):

TAF LIMF 191100Z 1912/2012 VRB05KT 7000 SCT025 BKN050 TEMPO 1912/2009 4000 RA